createdAt,value
2023-03-04T00:01:37.834Z,20.83
2023-03-04T00:04:27.535Z,21.87
2023-03-04T00:07:19.779Z,19.83
2023-03-04T00:10:13.208Z,19.40
2023-03-04T00:13:02.928Z,20.40
2023-03-04T00:15:52.627Z,19.90
2023-03-04T00:18:42.706Z,20.70
2023-03-04T00:21:32.979Z,15.57
2023-03-04T00:24:22.817Z,15.03
2023-03-04T00:27:14.587Z,17.53
2023-03-04T00:30:04.638Z,20.07
2023-03-04T00:32:54.527Z,14.60
2023-03-04T00:35:44.816Z,17.33
2023-03-04T00:38:34.526Z,17.83
2023-03-04T00:41:24.594Z,21.47
2023-03-04T00:44:16.109Z,20.30
2023-03-04T00:47:05.546Z,18.53
2023-03-04T00:49:55.356Z,20.57
2023-03-04T00:52:44.964Z,17.27
2023-03-04T00:55:34.872Z,18.00
2023-03-04T00:58:24.509Z,20.00
2023-03-04T01:01:15.839Z,13.13
2023-03-04T01:04:05.672Z,17.03
2023-03-04T01:06:55.279Z,17.33
2023-03-04T01:09:45.245Z,15.93
2023-03-04T01:12:35.163Z,20.20
2023-03-04T01:15:24.843Z,17.80
2023-03-04T01:18:20.191Z,18.43
2023-03-04T01:21:09.943Z,19.43
2023-03-04T01:24:00.144Z,17.37
2023-03-04T01:26:50.385Z,16.47
2023-03-04T01:29:40.602Z,19.07
2023-03-04T01:32:30.705Z,17.73
2023-03-04T01:35:21.915Z,16.83
2023-03-04T01:38:11.592Z,19.10
2023-03-04T01:41:01.864Z,16.33
2023-03-04T01:43:53.164Z,16.83
2023-03-04T01:46:45.103Z,17.13
2023-03-04T01:49:36.193Z,16.83
2023-03-04T01:52:29.708Z,16.07
2023-03-04T01:55:22.606Z,19.10
2023-03-04T01:58:13.838Z,18.67
2023-03-04T02:01:03.966Z,19.43
2023-03-04T02:03:53.581Z,17.80
2023-03-04T02:06:44.714Z,17.07
2023-03-04T02:09:36.786Z,17.73
2023-03-04T02:12:26.562Z,17.93
2023-03-04T02:15:16.400Z,19.77
2023-03-04T02:18:16.176Z,15.53
2023-03-04T02:21:13.591Z,16.67
2023-03-04T02:24:14.321Z,18.50
2023-03-04T02:27:05.740Z,17.63
2023-03-04T02:29:55.592Z,18.10
2023-03-04T02:32:45.186Z,17.87
2023-03-04T02:35:35.115Z,18.60
2023-03-04T02:38:24.687Z,16.17
2023-03-04T02:41:16.308Z,18.67
2023-03-04T02:44:19.392Z,18.90
2023-03-04T02:47:11.808Z,21.27
2023-03-04T02:50:01.661Z,18.47
2023-03-04T02:52:51.368Z,20.87
2023-03-04T02:55:42.949Z,17.80
2023-03-04T02:58:32.799Z,18.67
2023-03-04T03:01:23.955Z,18.70
2023-03-04T03:04:14.124Z,19.23
2023-03-04T03:07:03.845Z,19.30
2023-03-04T03:09:53.590Z,17.10
2023-03-04T03:12:43.303Z,22.10
2023-03-04T03:15:33.015Z,17.17
2023-03-04T03:18:24.320Z,17.80
2023-03-04T03:21:14.031Z,18.23
2023-03-04T03:24:03.721Z,17.93
2023-03-04T03:26:53.453Z,18.33
2023-03-04T03:29:43.023Z,21.40
2023-03-04T03:32:33.907Z,18.07
2023-03-04T03:35:25.152Z,16.67
2023-03-04T03:38:14.833Z,20.50
2023-03-04T03:41:04.585Z,16.60
2023-03-04T03:43:54.266Z,17.93
2023-03-04T03:46:44.654Z,16.67
2023-03-04T03:49:34.228Z,19.23
2023-03-04T03:52:25.570Z,18.83
2023-03-04T03:55:15.502Z,17.60
2023-03-04T03:58:05.032Z,15.17
2023-03-04T04:00:57.877Z,17.17
2023-03-04T04:03:47.924Z,16.80
2023-03-04T04:06:37.734Z,18.43
2023-03-04T04:09:28.826Z,16.17
2023-03-04T04:12:18.994Z,16.17
2023-03-04T04:15:10.301Z,17.77
2023-03-04T04:18:00.148Z,15.33
2023-03-04T04:20:49.702Z,16.43
2023-03-04T04:23:39.388Z,17.50
2023-03-04T04:26:30.594Z,17.17
2023-03-04T04:29:20.175Z,17.33
2023-03-04T04:32:10.699Z,15.87
2023-03-04T04:35:00.435Z,16.70
2023-03-04T04:37:50.155Z,18.57
2023-03-04T04:40:39.885Z,16.17
2023-03-04T04:43:30.931Z,18.87
2023-03-04T04:46:20.933Z,15.53
2023-03-04T04:49:11.221Z,17.47
2023-03-04T04:52:01.020Z,18.43
2023-03-04T04:54:50.681Z,15.50
2023-03-04T04:57:40.905Z,15.23
2023-03-04T05:00:31.969Z,14.70
2023-03-04T05:03:23.573Z,18.40
2023-03-04T05:06:15.111Z,15.90
2023-03-04T05:09:04.868Z,17.03
2023-03-04T05:11:54.506Z,19.53
2023-03-04T05:14:44.208Z,13.53
2023-03-04T05:17:35.262Z,15.10
2023-03-04T05:20:24.998Z,15.87
2023-03-04T05:23:14.707Z,14.73
2023-03-04T05:26:05.297Z,16.30
2023-03-04T05:28:55.038Z,18.77
2023-03-04T05:31:44.691Z,15.77
2023-03-04T05:34:35.848Z,15.30
2023-03-04T05:37:25.932Z,16.40
2023-03-04T05:40:16.233Z,17.70
2023-03-04T05:43:06.698Z,18.20
2023-03-04T05:45:56.844Z,16.73
2023-03-04T05:48:47.165Z,15.40
2023-03-04T05:51:38.290Z,17.17
2023-03-04T05:54:27.985Z,15.73
2023-03-04T05:57:17.573Z,15.30
2023-03-04T06:00:09.756Z,15.30
2023-03-04T06:02:59.475Z,14.33
2023-03-04T06:05:49.723Z,13.20
2023-03-04T06:08:41.026Z,14.70
2023-03-04T06:11:30.780Z,12.70
2023-03-04T06:14:20.508Z,9.77
2023-03-04T06:17:10.110Z,12.60
2023-03-04T06:19:59.645Z,11.57
2023-03-04T06:22:49.712Z,12.67
2023-03-04T06:25:41.016Z,9.73
2023-03-04T06:28:31.210Z,9.90
2023-03-04T06:31:20.891Z,11.93
2023-03-04T06:34:10.710Z,12.70
2023-03-04T06:37:00.289Z,10.73
2023-03-04T06:39:50.118Z,15.10
2023-03-04T06:42:42.755Z,9.50
2023-03-04T06:45:32.710Z,7.10
2023-03-04T06:48:22.198Z,11.03
2023-03-04T06:51:13.072Z,7.20
2023-03-04T06:54:02.672Z,9.70
2023-03-04T06:56:52.470Z,9.40
2023-03-04T06:59:43.913Z,9.47
2023-03-04T07:02:33.838Z,7.23
2023-03-04T07:05:23.519Z,12.30
2023-03-04T07:08:14.315Z,10.40
2023-03-04T07:11:04.078Z,9.27
2023-03-04T07:13:55.997Z,10.80
2023-03-04T07:16:48.844Z,8.90
2023-03-04T07:19:38.778Z,8.57
2023-03-04T07:22:28.967Z,8.87
2023-03-04T07:25:19.468Z,10.27
2023-03-04T07:28:09.121Z,5.77
2023-03-04T07:30:59.091Z,8.83
2023-03-04T07:33:50.194Z,8.30
2023-03-04T07:36:40.269Z,6.73
2023-03-04T07:39:30.384Z,8.03
2023-03-04T07:42:19.872Z,7.83
2023-03-04T07:45:11.011Z,7.73
2023-03-04T07:48:01.118Z,6.53
2023-03-04T07:50:52.247Z,4.07
2023-03-04T07:53:44.551Z,5.47
2023-03-04T07:56:35.702Z,4.70
2023-03-04T07:59:25.729Z,4.93
2023-03-04T08:02:16.205Z,6.77
2023-03-04T08:05:06.587Z,6.97
2023-03-04T08:07:58.316Z,5.67
2023-03-04T08:10:48.193Z,5.33
2023-03-04T08:13:38.159Z,4.83
2023-03-04T08:16:28.432Z,2.30
2023-03-04T08:19:18.070Z,5.70
2023-03-04T08:22:08.155Z,4.60
2023-03-04T08:24:59.280Z,4.50
2023-03-04T08:27:48.953Z,1.07
2023-03-04T08:30:40.567Z,5.73
2023-03-04T08:33:30.888Z,9.57
2023-03-04T08:36:20.529Z,15.30
2023-03-04T08:39:10.980Z,10.50
2023-03-04T08:42:02.150Z,17.97
2023-03-04T08:44:51.860Z,27.67
2023-03-04T08:47:43.096Z,39.37
2023-03-04T08:50:33.007Z,12.07
2023-03-04T08:53:23.060Z,6.10
2023-03-04T08:56:14.465Z,3.10
2023-03-04T08:59:05.620Z,4.77
2023-03-04T09:01:55.262Z,5.07
2023-03-04T09:04:45.170Z,4.60
2023-03-04T09:07:34.988Z,4.70
2023-03-04T09:10:24.916Z,3.07
2023-03-04T09:13:16.507Z,3.03
2023-03-04T09:16:12.839Z,3.07
2023-03-04T09:19:10.027Z,4.80
2023-03-04T09:22:09.151Z,4.67
2023-03-04T09:25:05.241Z,2.77
2023-03-04T09:28:01.473Z,2.87
2023-03-04T09:30:58.773Z,2.80
2023-03-04T09:33:49.833Z,3.70
2023-03-04T09:36:39.512Z,2.77
2023-03-04T09:39:29.290Z,3.43
2023-03-04T09:42:27.115Z,4.10
2023-03-04T09:45:21.165Z,2.00
2023-03-04T09:48:16.348Z,1.90
2023-03-04T09:51:21.610Z,2.80
2023-03-04T09:54:16.452Z,1.13
2023-03-04T09:57:23.097Z,2.67
2023-03-04T10:00:20.431Z,1.90
2023-03-04T10:03:19.578Z,3.57
2023-03-04T10:06:15.289Z,2.60
2023-03-04T10:09:07.950Z,0.77
2023-03-04T10:12:03.380Z,1.27
2023-03-04T10:14:57.788Z,2.33
2023-03-04T10:17:51.866Z,1.10
2023-03-04T10:20:52.155Z,2.27
2023-03-04T10:23:43.820Z,1.63
2023-03-04T10:26:37.236Z,0.93
2023-03-04T10:29:27.356Z,3.60
2023-03-04T10:32:19.583Z,2.60
2023-03-04T10:35:15.181Z,1.37
2023-03-04T10:38:06.968Z,2.33
2023-03-04T10:40:59.808Z,2.47
2023-03-04T10:44:02.493Z,1.50
2023-03-04T10:46:55.006Z,5.57
2023-03-04T10:49:53.777Z,1.47
2023-03-04T10:52:50.555Z,1.30
2023-03-04T10:55:46.685Z,0.93
2023-03-04T10:58:38.211Z,1.93
2023-03-04T11:01:30.713Z,1.40
2023-03-04T11:04:21.716Z,1.50
2023-03-04T11:07:12.946Z,1.17
2023-03-04T11:10:11.818Z,3.47
2023-03-04T11:13:09.606Z,1.40
2023-03-04T11:16:04.824Z,0.97
2023-03-04T11:18:56.338Z,1.73
2023-03-04T11:21:46.532Z,2.17
2023-03-04T11:24:38.877Z,1.90
2023-03-04T11:27:38.813Z,2.10
2023-03-04T11:30:36.129Z,2.43
2023-03-04T11:33:37.889Z,3.53
2023-03-04T11:36:36.406Z,2.13
2023-03-04T11:39:34.669Z,3.10
2023-03-04T11:42:33.601Z,1.67
2023-03-04T11:45:31.821Z,4.03
2023-03-04T11:48:40.130Z,1.60
2023-03-04T11:51:37.414Z,2.40
2023-03-04T11:54:37.561Z,1.57
2023-03-04T11:57:36.392Z,5.70
2023-03-04T12:00:38.274Z,8.67
2023-03-04T12:03:55.843Z,2.93
2023-03-04T12:07:02.248Z,2.07
2023-03-04T12:10:05.585Z,3.47
2023-03-04T12:13:23.915Z,4.53
2023-03-04T12:16:27.774Z,3.80
2023-03-04T12:19:29.169Z,4.50
2023-03-04T12:22:41.898Z,3.30
2023-03-04T12:25:44.391Z,4.03
2023-03-04T12:28:52.772Z,7.53
2023-03-04T12:31:44.949Z,1.30
2023-03-04T12:35:02.429Z,2.63
2023-03-04T12:38:28.049Z,5.93
2023-03-04T12:41:30.266Z,4.03
2023-03-04T12:44:21.881Z,4.67
2023-03-04T12:47:34.169Z,2.30
2023-03-04T12:50:45.135Z,3.70
2023-03-04T12:53:42.819Z,0.70
2023-03-04T12:56:44.617Z,1.93
2023-03-04T12:59:40.231Z,6.93
2023-03-04T13:02:45.257Z,9.30
2023-03-04T13:05:49.397Z,8.03
2023-03-04T13:08:48.793Z,11.73
2023-03-04T13:11:47.748Z,12.10
2023-03-04T13:14:38.848Z,7.83
2023-03-04T13:17:45.008Z,7.37
2023-03-04T13:20:39.593Z,2.60
2023-03-04T13:23:32.352Z,2.20
2023-03-04T13:26:34.247Z,3.00
2023-03-04T13:29:37.850Z,3.70
2023-03-04T13:32:39.578Z,3.30
2023-03-04T13:35:53.577Z,1.50
2023-03-04T13:38:43.732Z,7.27
2023-03-04T13:41:49.546Z,10.17
2023-03-04T13:45:05.469Z,11.23
2023-03-04T13:47:55.905Z,13.00
2023-03-04T13:50:50.188Z,16.97
2023-03-04T13:53:46.494Z,10.00
2023-03-04T13:56:37.908Z,7.50
2023-03-04T13:59:36.151Z,3.67
2023-03-04T14:02:27.988Z,8.07
2023-03-04T14:05:17.514Z,11.70
2023-03-04T14:08:20.900Z,10.77
2023-03-04T14:11:17.387Z,12.17
2023-03-04T14:14:09.459Z,10.70
2023-03-04T14:17:01.766Z,12.77
2023-03-04T14:19:53.881Z,13.87
2023-03-04T14:22:44.328Z,25.50
2023-03-04T14:25:37.108Z,10.30
2023-03-04T14:28:28.416Z,13.37
2023-03-04T14:31:21.843Z,9.77
2023-03-04T14:34:28.921Z,14.07
2023-03-04T14:37:24.368Z,5.80
2023-03-04T14:40:23.455Z,1.57
2023-03-04T14:43:19.587Z,1.67
2023-03-04T14:46:16.610Z,1.43
2023-03-04T14:49:07.116Z,2.70
2023-03-04T14:51:59.632Z,2.90
2023-03-04T14:55:04.115Z,1.47
2023-03-04T14:57:59.374Z,12.03
2023-03-04T15:00:50.764Z,6.67
2023-03-04T15:03:44.399Z,2.00
2023-03-04T15:06:37.901Z,1.20
2023-03-04T15:09:30.116Z,2.73
2023-03-04T15:12:28.524Z,1.17
2023-03-04T15:15:50.339Z,1.23
2023-03-04T15:18:54.871Z,2.33
2023-03-04T15:21:45.172Z,10.27
2023-03-04T15:24:43.531Z,11.83
2023-03-04T15:27:35.316Z,4.03
2023-03-04T15:30:27.924Z,1.90
2023-03-04T15:33:19.323Z,4.13
2023-03-04T15:36:16.670Z,3.17
2023-03-04T15:39:07.468Z,2.67
2023-03-04T15:41:57.379Z,1.47
2023-03-04T15:44:48.765Z,2.13
2023-03-04T15:47:42.944Z,7.57
2023-03-04T15:50:33.293Z,16.60
2023-03-04T15:53:31.084Z,18.47
2023-03-04T15:56:25.306Z,5.80
2023-03-04T15:59:20.108Z,3.43
2023-03-04T16:02:22.154Z,1.80
2023-03-04T16:05:16.370Z,1.80
2023-03-04T16:08:07.559Z,2.47
2023-03-04T16:11:04.467Z,5.20
2023-03-04T16:13:58.117Z,1.67
2023-03-04T16:16:51.346Z,0.57
2023-03-04T16:19:42.716Z,2.07
2023-03-04T16:22:33.926Z,2.13
2023-03-04T16:25:25.305Z,2.00
2023-03-04T16:28:18.532Z,1.57
2023-03-04T16:31:09.761Z,4.07
2023-03-04T16:34:00.636Z,1.37
2023-03-04T16:36:54.836Z,1.27
2023-03-04T16:39:46.584Z,1.60
2023-03-04T16:42:37.250Z,1.50
2023-03-04T16:45:31.473Z,1.57
2023-03-04T16:48:23.451Z,2.00
2023-03-04T16:51:17.337Z,1.23
2023-03-04T16:54:09.321Z,2.00
2023-03-04T16:56:59.925Z,1.27
2023-03-04T16:59:51.513Z,1.63
2023-03-04T17:02:46.787Z,2.20
2023-03-04T17:05:37.732Z,1.93
2023-03-04T17:08:27.906Z,3.40
2023-03-04T17:11:21.295Z,3.90
2023-03-04T17:14:11.500Z,3.20
2023-03-04T17:17:03.988Z,2.37
2023-03-04T17:19:55.886Z,3.57
2023-03-04T17:22:47.128Z,1.50
2023-03-04T17:25:41.327Z,2.23
2023-03-04T17:28:33.255Z,2.10
2023-03-04T17:31:24.488Z,3.33
2023-03-04T17:34:16.467Z,1.67
2023-03-04T17:37:09.931Z,4.53
2023-03-04T17:40:01.276Z,3.13
2023-03-04T17:42:58.369Z,3.27
2023-03-04T17:45:50.174Z,3.70
2023-03-04T17:48:42.438Z,3.87
2023-03-04T17:51:35.912Z,3.50
2023-03-04T17:54:29.426Z,1.30
2023-03-04T17:57:21.308Z,2.20
2023-03-04T18:00:14.507Z,2.80
2023-03-04T18:03:06.990Z,2.47
2023-03-04T18:05:59.919Z,4.43
2023-03-04T18:08:50.534Z,2.93
2023-03-04T18:11:44.828Z,2.03
2023-03-04T18:14:36.930Z,3.67
2023-03-04T18:17:31.192Z,2.73
2023-03-04T18:20:23.962Z,2.50
2023-03-04T18:23:15.184Z,4.27
2023-03-04T18:26:06.830Z,4.23
2023-03-04T18:29:02.601Z,2.20
2023-03-04T18:31:54.911Z,2.67
2023-03-04T18:34:46.433Z,12.63
2023-03-04T18:37:38.816Z,4.00
2023-03-04T18:40:30.709Z,1.93
2023-03-04T18:43:21.750Z,1.87
2023-03-04T18:46:23.630Z,3.97
2023-03-04T18:49:22.009Z,3.03
2023-03-04T18:52:17.819Z,3.50
2023-03-04T18:55:17.873Z,2.90
2023-03-04T18:58:13.723Z,1.87
2023-03-04T19:01:12.917Z,1.30
2023-03-04T19:04:20.298Z,2.60
2023-03-04T19:07:17.644Z,3.20
2023-03-04T19:10:15.744Z,2.80
2023-03-04T19:13:08.369Z,1.73
2023-03-04T19:16:11.502Z,3.00
2023-03-04T19:19:11.418Z,4.27
2023-03-04T19:22:05.773Z,2.00
2023-03-04T19:24:57.921Z,3.93
2023-03-04T19:27:49.038Z,2.63
2023-03-04T19:30:40.317Z,1.87
2023-03-04T19:33:31.386Z,2.00
2023-03-04T19:36:24.550Z,4.23
2023-03-04T19:39:16.792Z,2.47
2023-03-04T19:42:08.011Z,3.57
2023-03-04T19:45:08.912Z,2.37
2023-03-04T19:48:04.105Z,1.50
2023-03-04T19:50:56.573Z,3.97
2023-03-04T19:53:50.230Z,2.57
2023-03-04T19:56:41.992Z,4.37
2023-03-04T19:59:35.138Z,4.07
2023-03-04T20:02:27.949Z,3.57
2023-03-04T20:05:19.635Z,1.20
2023-03-04T20:08:12.857Z,2.80
2023-03-04T20:11:10.198Z,2.53
2023-03-04T20:14:02.898Z,2.67
2023-03-04T20:16:54.145Z,5.10
2023-03-04T20:19:47.499Z,1.83
2023-03-04T20:22:40.583Z,2.77
2023-03-04T20:25:34.092Z,3.60
2023-03-04T20:28:27.290Z,4.60
2023-03-04T20:31:23.718Z,3.43
2023-03-04T20:34:18.368Z,1.60
2023-03-04T20:37:11.594Z,4.70
2023-03-04T20:40:04.969Z,7.80
2023-03-04T20:42:55.912Z,4.37
2023-03-04T20:45:50.696Z,3.57
2023-03-04T20:48:41.690Z,4.83
2023-03-04T20:51:33.203Z,3.10
2023-03-04T20:54:25.341Z,3.27
2023-03-04T20:57:16.123Z,5.13
2023-03-04T21:00:09.777Z,5.90
2023-03-04T21:03:02.178Z,2.97
2023-03-04T21:05:52.563Z,1.73
2023-03-04T21:08:43.627Z,2.67
2023-03-04T21:11:40.426Z,2.17
2023-03-04T21:14:32.920Z,4.20
2023-03-04T21:17:26.667Z,3.17
2023-03-04T21:20:18.666Z,3.33
2023-03-04T21:23:09.266Z,2.20
2023-03-04T21:26:00.977Z,1.80
2023-03-04T21:28:51.926Z,1.70
2023-03-04T21:31:46.772Z,2.30
2023-03-04T21:34:40.484Z,3.73
2023-03-04T21:37:32.451Z,5.03
2023-03-04T21:40:22.741Z,2.30
2023-03-04T21:43:12.840Z,3.17
2023-03-04T21:46:03.048Z,5.30
2023-03-04T21:48:52.992Z,2.27
2023-03-04T21:51:45.272Z,3.50
2023-03-04T21:54:36.813Z,2.43
2023-03-04T21:57:29.103Z,4.30
2023-03-04T22:00:19.933Z,3.13
2023-03-04T22:03:10.259Z,3.30
2023-03-04T22:06:00.237Z,1.93
2023-03-04T22:08:50.401Z,2.70
2023-03-04T22:11:41.571Z,3.40
2023-03-04T22:14:34.360Z,1.47
2023-03-04T22:17:24.745Z,2.10
2023-03-04T22:20:16.193Z,2.40
2023-03-04T22:23:06.312Z,1.67
2023-03-04T22:25:56.509Z,2.40
2023-03-04T22:28:48.029Z,1.20
2023-03-04T22:31:39.603Z,5.20
2023-03-04T22:34:29.307Z,2.80
2023-03-04T22:37:18.910Z,1.50
2023-03-04T22:40:11.446Z,2.57
2023-03-04T22:43:01.357Z,2.93
2023-03-04T22:45:53.102Z,2.57
2023-03-04T22:48:42.710Z,1.97
2023-03-04T22:51:32.911Z,3.10
2023-03-04T22:54:22.574Z,2.33
2023-03-04T22:57:12.248Z,4.40
2023-03-04T23:00:02.271Z,1.50
2023-03-04T23:02:54.125Z,3.53
2023-03-04T23:05:44.174Z,1.30
2023-03-04T23:08:34.130Z,1.57
2023-03-04T23:11:27.125Z,5.17
2023-03-04T23:14:16.669Z,3.60
2023-03-04T23:17:06.542Z,2.63
2023-03-04T23:19:57.900Z,1.93
2023-03-04T23:22:48.320Z,2.33
2023-03-04T23:25:38.227Z,3.27
2023-03-04T23:28:27.927Z,2.10
2023-03-04T23:31:19.538Z,1.70
2023-03-04T23:34:09.502Z,2.50
2023-03-04T23:37:00.902Z,1.27
2023-03-04T23:39:50.971Z,1.37
2023-03-04T23:42:41.248Z,2.37
2023-03-04T23:45:31.142Z,3.90
2023-03-04T23:48:20.685Z,1.97
2023-03-04T23:51:11.738Z,1.67
2023-03-04T23:54:03.407Z,4.13
2023-03-04T23:56:52.986Z,2.53
2023-03-04T23:59:42.574Z,2.67
